aviador You're here:

LJLJ Decoded Metar

LJUBLIANA in SLOVENIA
Report Time2017-08-21 13:30:00
UTC Time2017-08-21 14:01:46
Flight Rules vfr VFR
Wind090° at 05 kt
W.Decomp.*RWY 12: 4.2 kt HW 2.6 kt LCW
W.Rank090° ranks 12
Current wind is above 090° avg. (3.7)
Visibility9999 m
Phenomena:N/A
Clouds:Scattered 066 Hf
Expected CloudBase > 5,600 ft AGL from Temp-Dew spread
CeilingNone
Temp22°C (ISA +10)
Dew Point08°C (41% RH)
AAT19.8°C
QNH1020 hPa
Density Alt2,283 ft
Elevation1,263 ft
Report Wrong Elevation
Raw Report
LJLJ 211330Z 09005KT 050V130 9999 SCT066 22/08 Q1020 NOSIG=

Extra information for LJLJ:More info

Metar Taf Metar & Taf Last 4 Metars F.Rules Stats Wind Profile Meteogram Temp Stats Airport Information Weather charts Add Link Nearby VenuesMetar ALERT Operation Metar Decoded Social comments

Webcam at LJLJ